Etusivu
METAR-TAF:

METAR-TAF

Lentoasemat :

Balıkesir, Turkki

Leveyspiiri: 39-37N, Pituuspiiri: 027-55E, korkeus merenpinnasta: 101 m

Tämänhetkinen sää

Tämä raportti tehtiin 41 minuuttia sitten, kello 16.50 UTC
Tuuli 17 kn pohjoisesta/koillisesta
Lämpötila 7°C
Kosteus 66%
Ilmanpaine 1025 hPa
Näkyvyys 10 km tai enemmän
Hajanaisia pilviä 3500 ft:n korkeudessa

METAR: LTBF 221650Z 02017KT 9999 SCT035 07/01 Q1025 NOSIG

Aika: 20:31 (17:31 UTC)

Sääennuste

Tämä raportti tehtiin 3 tuntia ja 51 minuuttia sitten, kello 13.40 UTC
Ennuste voimassa 22. päivästä klo 15 UTC - 22. päivään klo 24 UTC
Tuuli 20 kn pohjoisesta
Näkyvyys 10 km tai enemmän
Hajanaisia pilviä 3500 ft:n korkeudessa
Tulossa
22. päivästä klo 18 UTC - 22. päivään klo 21 UTC
Tuuli 10 kn pohjoisesta

TAF: LTBF 221340Z 2215/2224 01020KT 9999 SCT035 BECMG 2218/2221 01010KT

Säähavainnot ja -ennusteet yli 4000 lentoasemalta (METAR- ja TAF-raportit).

Käytössä olevat sääasemat on merkitty karttaan keltaisilla ja punaisilla pisteillä.

Aseta hiiri pisteen päälle nähdäksesi sääaseman nimen.

Klikkaa sitten nähdäksesi säähavainnot ja -ennusteet.

Kartan vaihtaminen: klikkaa mustalla rastilla varustettuja vihreitä pisteitä, niin voit zoomata sisään; viivalla varustettua vihreää pistettä, niin voit zoomata ulos tai vihreitä nuolia, niin pääset viereisille kartoille.


METAR-TAF: